UAL850 KLAX-RJAA
Flight info
| Callsign | UAL850 |
|---|---|
| Flight time | N/A |
| Altitude | 32000 |
| Route | SUMMR2 MCKEY DCT LIBBO DCT BRINY DCT BOARS DCT AMAKR DCT REDWD DCT TRYSH DCT GAPNE DCT 44N140W/N0491F340 47N150W 50N160W 51N170W 51N180E 50N170E/N0487F360 DCT CUTEE DCT KALIG KALNA/N0482F380 OTR5 ADNAP Y807 NOGIX Y802 OLDIV Y809 SUPOK |
| Aircraft | B77W/H-SDE1E2E3FGHIJ2J3J4J5M1RWXY/LB1D1 |
Departure
| Time | 2026-05-04 04:33 |
|---|---|
| Airport | Los Angeles International Airport (KLAX) |
Arrival
| Time | N/A |
|---|---|
| Airport | Narita International Airport (RJAA) |
| Time | Latitude | Longitude | Altitude | Speed | Heading |
|---|---|---|---|---|---|
| 2026-05-04 04:08 | 33.94024 | -118.40923 | 133 ft | 0 kts | 263° |
| 2026-05-04 04:17 | 33.94025 | -118.40917 | 132 ft | 2 kts | 264° |
| 2026-05-04 04:18 | 33.94027 | -118.40897 | 132 ft | 2 kts | 264° |
| 2026-05-04 04:18 | 33.94028 | -118.40881 | 132 ft | 0 kts | 263° |
| 2026-05-04 04:18 | 33.94030 | -118.40866 | 132 ft | 2 kts | 251° |
| 2026-05-04 04:18 | 33.94040 | -118.40848 | 132 ft | 2 kts | 223° |
| 2026-05-04 04:19 | 33.94053 | -118.40837 | 132 ft | 2 kts | 201° |
| 2026-05-04 04:19 | 33.94069 | -118.40833 | 131 ft | 2 kts | 179° |
| 2026-05-04 04:19 | 33.94078 | -118.40833 | 131 ft | 0 kts | 173° |
| 2026-05-04 04:22 | 33.94073 | -118.40833 | 131 ft | 2 kts | 173° |
| 2026-05-04 04:22 | 33.94041 | -118.40828 | 132 ft | 5 kts | 174° |
| 2026-05-04 04:23 | 33.93990 | -118.40822 | 133 ft | 7 kts | 175° |
| 2026-05-04 04:23 | 33.93927 | -118.40818 | 133 ft | 8 kts | 185° |
| 2026-05-04 04:23 | 33.93883 | -118.40848 | 133 ft | 6 kts | 242° |
| 2026-05-04 04:23 | 33.93871 | -118.40907 | 133 ft | 6 kts | 261° |
| 2026-05-04 04:24 | 33.93864 | -118.40962 | 133 ft | 6 kts | 262° |
| 2026-05-04 04:24 | 33.93857 | -118.41028 | 132 ft | 8 kts | 263° |
| 2026-05-04 04:24 | 33.93850 | -118.41103 | 132 ft | 8 kts | 267° |
| 2026-05-04 04:24 | 33.93872 | -118.41164 | 132 ft | 7 kts | 330° |
| 2026-05-04 04:25 | 33.93935 | -118.41175 | 131 ft | 9 kts | 353° |
| 2026-05-04 04:25 | 33.94010 | -118.41187 | 129 ft | 12 kts | 353° |
| 2026-05-04 04:25 | 33.94108 | -118.41200 | 129 ft | 14 kts | 354° |
| 2026-05-04 04:25 | 33.94218 | -118.41215 | 128 ft | 16 kts | 353° |
| 2026-05-04 04:26 | 33.94338 | -118.41234 | 126 ft | 17 kts | 353° |
| 2026-05-04 04:26 | 33.94457 | -118.41252 | 126 ft | 17 kts | 353° |
| 2026-05-04 04:26 | 33.94575 | -118.41268 | 126 ft | 16 kts | 353° |
| 2026-05-04 04:26 | 33.94680 | -118.41283 | 128 ft | 12 kts | 353° |
| 2026-05-04 04:27 | 33.94748 | -118.41294 | 129 ft | 7 kts | 356° |
| 2026-05-04 04:27 | 33.94784 | -118.41278 | 130 ft | 4 kts | 51° |
| 2026-05-04 04:27 | 33.94799 | -118.41232 | 130 ft | 8 kts | 76° |
| 2026-05-04 04:27 | 33.94813 | -118.41125 | 130 ft | 13 kts | 83° |
| 2026-05-04 04:28 | 33.94825 | -118.41004 | 130 ft | 13 kts | 84° |
| 2026-05-04 04:28 | 33.94836 | -118.40887 | 129 ft | 13 kts | 82° |
| 2026-05-04 04:28 | 33.94849 | -118.40765 | 128 ft | 16 kts | 83° |
| 2026-05-04 04:28 | 33.94865 | -118.40623 | 126 ft | 16 kts | 82° |
| 2026-05-04 04:29 | 33.94877 | -118.40494 | 126 ft | 13 kts | 84° |
| 2026-05-04 04:29 | 33.94890 | -118.40376 | 124 ft | 13 kts | 83° |
| 2026-05-04 04:29 | 33.94900 | -118.40266 | 123 ft | 12 kts | 84° |
| 2026-05-04 04:29 | 33.94910 | -118.40170 | 123 ft | 10 kts | 83° |
| 2026-05-04 04:30 | 33.94919 | -118.40076 | 121 ft | 11 kts | 83° |
| 2026-05-04 04:30 | 33.94930 | -118.39986 | 120 ft | 9 kts | 75° |
| 2026-05-04 04:30 | 33.94939 | -118.39959 | 120 ft | 0 kts | 59° |
| 2026-05-04 04:31 | 33.94941 | -118.39956 | 120 ft | 1 kts | 56° |
| 2026-05-04 04:31 | 33.94947 | -118.39948 | 120 ft | 2 kts | 46° |
| 2026-05-04 04:31 | 33.94972 | -118.39930 | 119 ft | 5 kts | 19° |
| 2026-05-04 04:31 | 33.95010 | -118.39928 | 118 ft | 4 kts | 347° |
| 2026-05-04 04:32 | 33.95033 | -118.39944 | 119 ft | 1 kts | 313° |
| 2026-05-04 04:32 | 33.95036 | -118.39951 | 119 ft | 1 kts | 284° |
| 2026-05-04 04:32 | 33.95036 | -118.39970 | 119 ft | 3 kts | 266° |
| 2026-05-04 04:32 | 33.95012 | -118.40236 | 123 ft | 69 kts | 263° |
| 2026-05-04 04:33 | 33.94907 | -118.41248 | 130 ft | 150 kts | 263° |
| 2026-05-04 04:33 | 33.94732 | -118.42869 | 373 ft | 200 kts | 262° |
| 2026-05-04 04:33 | 33.94550 | -118.44478 | 1403 ft | 195 kts | 263° |
| 2026-05-04 04:33 | 33.94403 | -118.46107 | 1754 ft | 204 kts | 263° |
| 2026-05-04 04:34 | 33.94296 | -118.47887 | 1880 ft | 223 kts | 268° |
| 2026-05-04 04:34 | 33.94259 | -118.49809 | 2007 ft | 239 kts | 268° |
| 2026-05-04 04:34 | 33.94176 | -118.51893 | 2486 ft | 252 kts | 264° |
| 2026-05-04 04:34 | 33.94000 | -118.53958 | 3335 ft | 251 kts | 264° |
| 2026-05-04 04:35 | 33.93824 | -118.56051 | 4058 ft | 255 kts | 264° |
| 2026-05-04 04:35 | 33.93653 | -118.58192 | 4827 ft | 256 kts | 264° |
| 2026-05-04 04:35 | 33.93486 | -118.60317 | 5508 ft | 260 kts | 265° |
| 2026-05-04 04:35 | 33.93315 | -118.62495 | 6123 ft | 266 kts | 264° |
| 2026-05-04 04:36 | 33.93140 | -118.64722 | 6786 ft | 270 kts | 264° |
| 2026-05-04 04:36 | 33.92967 | -118.66959 | 7605 ft | 267 kts | 263° |
| 2026-05-04 04:36 | 33.92797 | -118.69165 | 8299 ft | 269 kts | 263° |
| 2026-05-04 04:36 | 33.92624 | -118.71390 | 8927 ft | 272 kts | 263° |
| 2026-05-04 04:37 | 33.92084 | -118.78291 | 10518 ft | 294 kts | 262° |
| 2026-05-04 04:37 | 33.91884 | -118.80836 | 10772 ft | 313 kts | 262° |
| 2026-05-04 04:38 | 33.91711 | -118.83499 | 11019 ft | 333 kts | 267° |
| 2026-05-04 04:38 | 33.91768 | -118.86365 | 11266 ft | 353 kts | 270° |
| 2026-05-04 04:38 | 33.91865 | -118.89400 | 11562 ft | 370 kts | 270° |
| 2026-05-04 04:38 | 33.91962 | -118.92516 | 12194 ft | 377 kts | 269° |
| 2026-05-04 04:39 | 33.92058 | -118.95673 | 13078 ft | 377 kts | 270° |
| 2026-05-04 04:39 | 33.92239 | -118.98781 | 13904 ft | 379 kts | 275° |
| 2026-05-04 04:39 | 33.92838 | -119.01854 | 14732 ft | 383 kts | 285° |
| 2026-05-04 04:39 | 33.93884 | -119.04790 | 15564 ft | 387 kts | 294° |
| 2026-05-04 04:40 | 33.95261 | -119.07556 | 16367 ft | 388 kts | 296° |
| 2026-05-04 04:40 | 33.96689 | -119.10312 | 17123 ft | 388 kts | 295° |
| 2026-05-04 04:40 | 33.98107 | -119.13052 | 17825 ft | 388 kts | 295° |
| 2026-05-04 04:40 | 33.99538 | -119.15792 | 18518 ft | 391 kts | 296° |
| 2026-05-04 04:41 | 34.01247 | -119.18378 | 19227 ft | 400 kts | 305° |
| 2026-05-04 04:41 | 34.03331 | -119.20660 | 19911 ft | 411 kts | 313° |
| 2026-05-04 04:41 | 34.05684 | -119.22718 | 20558 ft | 416 kts | 315° |
| 2026-05-04 04:41 | 34.08072 | -119.24759 | 21031 ft | 422 kts | 315° |
| 2026-05-04 04:42 | 34.10477 | -119.26820 | 21351 ft | 431 kts | 315° |
| 2026-05-04 04:42 | 34.12941 | -119.28931 | 21866 ft | 434 kts | 315° |
| 2026-05-04 04:42 | 34.15386 | -119.31028 | 22521 ft | 434 kts | 315° |
| 2026-05-04 04:42 | 34.17851 | -119.33147 | 22998 ft | 438 kts | 314° |
| 2026-05-04 04:43 | 34.20338 | -119.35292 | 23390 ft | 443 kts | 314° |
| 2026-05-04 04:43 | 34.22867 | -119.37471 | 23916 ft | 444 kts | 314° |
| 2026-05-04 04:43 | 34.25282 | -119.39745 | 24295 ft | 440 kts | 308° |
| 2026-05-04 04:43 | 34.27403 | -119.42357 | 24528 ft | 440 kts | 302° |
| 2026-05-04 04:44 | 34.29446 | -119.45091 | 25071 ft | 440 kts | 302° |
| 2026-05-04 04:44 | 34.31485 | -119.47825 | 25679 ft | 439 kts | 302° |
| 2026-05-04 04:44 | 34.33530 | -119.50571 | 26208 ft | 440 kts | 301° |
| 2026-05-04 04:44 | 34.35572 | -119.53318 | 26658 ft | 442 kts | 301° |
| 2026-05-04 04:45 | 34.37625 | -119.56081 | 27145 ft | 444 kts | 302° |
| 2026-05-04 04:45 | 34.39692 | -119.58866 | 27524 ft | 447 kts | 301° |
| 2026-05-04 04:45 | 34.41801 | -119.61713 | 27804 ft | 453 kts | 302° |
| 2026-05-04 04:47 | 34.54357 | -119.78668 | 31092 ft | 446 kts | 299° |
| 2026-05-04 04:47 | 34.56414 | -119.81448 | 31767 ft | 440 kts | 298° |
| 2026-05-04 04:47 | 34.58452 | -119.84209 | 32006 ft | 438 kts | 298° |
| 2026-05-04 04:48 | 34.62452 | -119.89631 | 32032 ft | 429 kts | 298° |
| 2026-05-04 04:49 | 34.72409 | -120.03188 | 32039 ft | 431 kts | 299° |
| 2026-05-04 04:49 | 34.76380 | -120.08607 | 32029 ft | 429 kts | 298° |
| 2026-05-04 04:50 | 34.80346 | -120.14034 | 32016 ft | 433 kts | 299° |
| 2026-05-04 04:50 | 34.84312 | -120.19465 | 32033 ft | 433 kts | 298° |
| 2026-05-04 04:51 | 34.88284 | -120.24912 | 32022 ft | 429 kts | 299° |
| 2026-05-04 04:51 | 34.92247 | -120.30357 | 32020 ft | 429 kts | 299° |
| 2026-05-04 04:52 | 34.96206 | -120.35810 | 32028 ft | 435 kts | 299° |
| 2026-05-04 04:52 | 35.00172 | -120.41271 | 32021 ft | 432 kts | 299° |
| 2026-05-04 04:53 | 35.04160 | -120.46774 | 32017 ft | 429 kts | 298° |
| 2026-05-04 04:53 | 35.08144 | -120.52292 | 32015 ft | 437 kts | 299° |
| 2026-05-04 04:54 | 35.12171 | -120.57864 | 32004 ft | 434 kts | 299° |
| 2026-05-04 04:54 | 35.16158 | -120.63394 | 31999 ft | 434 kts | 299° |
| 2026-05-04 04:55 | 35.20146 | -120.68935 | 32016 ft | 435 kts | 298° |
| 2026-05-04 04:55 | 35.24128 | -120.74477 | 32016 ft | 435 kts | 299° |
| 2026-05-04 04:56 | 35.28094 | -120.80002 | 32007 ft | 435 kts | 298° |
| 2026-05-04 04:56 | 35.32109 | -120.85614 | 32004 ft | 442 kts | 299° |
| 2026-05-04 04:57 | 35.36171 | -120.91292 | 32005 ft | 442 kts | 299° |
| 2026-05-04 04:57 | 35.40183 | -120.96905 | 32004 ft | 438 kts | 298° |
| 2026-05-04 04:58 | 35.44216 | -121.02566 | 32003 ft | 441 kts | 300° |
| 2026-05-04 04:58 | 35.48263 | -121.08252 | 32003 ft | 448 kts | 299° |
| 2026-05-04 04:59 | 35.52298 | -121.14008 | 31998 ft | 444 kts | 298° |
| 2026-05-04 04:59 | 35.56298 | -121.19781 | 32003 ft | 443 kts | 299° |
| 2026-05-04 05:00 | 35.60290 | -121.25546 | 32003 ft | 445 kts | 299° |
| 2026-05-04 05:01 | 35.66290 | -121.34221 | 31998 ft | 445 kts | 299° |
| 2026-05-04 05:01 | 35.70303 | -121.40031 | 31996 ft | 444 kts | 299° |
| 2026-05-04 05:02 | 35.74298 | -121.45828 | 32000 ft | 448 kts | 299° |
| 2026-05-04 05:02 | 35.78328 | -121.51681 | 32000 ft | 448 kts | 299° |
| 2026-05-04 05:03 | 35.82360 | -121.57549 | 31997 ft | 451 kts | 300° |
| 2026-05-04 05:04 | 35.90436 | -121.69327 | 32017 ft | 447 kts | 299° |
| 2026-05-04 05:04 | 35.94437 | -121.75180 | 32018 ft | 448 kts | 299° |
| 2026-05-04 05:06 | 36.12825 | -121.91398 | 32008 ft | 489 kts | 322° |
| 2026-05-04 05:06 | 36.15848 | -121.93273 | 32005 ft | 491 kts | 322° |
| 2026-05-04 05:07 | 36.21960 | -121.97080 | 32008 ft | 492 kts | 323° |
| 2026-05-04 05:07 | 36.28033 | -122.00878 | 32006 ft | 490 kts | 323° |
| 2026-05-04 05:09 | 36.55653 | -122.18282 | 31995 ft | 498 kts | 324° |
| 2026-05-04 05:10 | 36.61789 | -122.22165 | 32003 ft | 493 kts | 325° |
| 2026-05-04 05:10 | 36.67896 | -122.26043 | 31992 ft | 497 kts | 325° |